sensor_id;sensor_type;location;lat;lon;timestamp;P1;durP1;ratioP1;P2;durP2;ratioP2
21114;SDS011;10715;48.546;9.896;2023-05-07T00:00:08;1.30;;;1.03;;
21114;SDS011;10715;48.546;9.896;2023-05-07T00:02:34;2.30;;;1.27;;
21114;SDS011;10715;48.546;9.896;2023-05-07T00:05:00;1.90;;;0.73;;
21114;SDS011;10715;48.546;9.896;2023-05-07T00:07:27;1.40;;;0.70;;
21114;SDS011;10715;48.546;9.896;2023-05-07T00:09:53;3.47;;;0.90;;
21114;SDS011;10715;48.546;9.896;2023-05-07T00:12:18;1.07;;;0.70;;
21114;SDS011;10715;48.546;9.896;2023-05-07T00:14:44;1.20;;;0.80;;
21114;SDS011;10715;48.546;9.896;2023-05-07T00:17:10;1.20;;;1.07;;
21114;SDS011;10715;48.546;9.896;2023-05-07T00:19:36;1.20;;;0.90;;
21114;SDS011;10715;48.546;9.896;2023-05-07T00:22:02;4.33;;;0.53;;
21114;SDS011;10715;48.546;9.896;2023-05-07T00:24:27;5.13;;;0.90;;
21114;SDS011;10715;48.546;9.896;2023-05-07T00:26:53;2.17;;;0.70;;
21114;SDS011;10715;48.546;9.896;2023-05-07T00:29:19;1.73;;;0.90;;
21114;SDS011;10715;48.546;9.896;2023-05-07T00:31:45;4.17;;;1.40;;
21114;SDS011;10715;48.546;9.896;2023-05-07T00:34:10;1.90;;;0.83;;
21114;SDS011;10715;48.546;9.896;2023-05-07T00:36:36;1.20;;;0.67;;
21114;SDS011;10715;48.546;9.896;2023-05-07T00:39:02;5.10;;;1.10;;
21114;SDS011;10715;48.546;9.896;2023-05-07T00:41:29;1.13;;;0.70;;
21114;SDS011;10715;48.546;9.896;2023-05-07T00:43:56;3.63;;;1.07;;
21114;SDS011;10715;48.546;9.896;2023-05-07T00:46:21;1.50;;;0.90;;
21114;SDS011;10715;48.546;9.896;2023-05-07T00:48:49;1.10;;;0.80;;
21114;SDS011;10715;48.546;9.896;2023-05-07T00:51:16;3.23;;;1.33;;
21114;SDS011;10715;48.546;9.896;2023-05-07T00:53:43;1.00;;;0.70;;
21114;SDS011;10715;48.546;9.896;2023-05-07T00:56:09;4.27;;;1.73;;
21114;SDS011;10715;48.546;9.896;2023-05-07T00:58:36;1.00;;;0.80;;
21114;SDS011;10715;48.546;9.896;2023-05-07T01:01:02;1.10;;;0.83;;
21114;SDS011;10715;48.546;9.896;2023-05-07T01:03:28;1.00;;;0.70;;
21114;SDS011;10715;48.546;9.896;2023-05-07T01:05:53;1.00;;;0.70;;
21114;SDS011;10715;48.546;9.896;2023-05-07T01:08:21;1.20;;;0.87;;
21114;SDS011;10715;48.546;9.896;2023-05-07T01:10:49;2.30;;;0.80;;
21114;SDS011;10715;48.546;9.896;2023-05-07T01:13:16;2.00;;;0.80;;
21114;SDS011;10715;48.546;9.896;2023-05-07T01:15:43;1.20;;;0.80;;
21114;SDS011;10715;48.546;9.896;2023-05-07T01:18:09;4.23;;;0.67;;
21114;SDS011;10715;48.546;9.896;2023-05-07T01:20:35;0.80;;;0.50;;
21114;SDS011;10715;48.546;9.896;2023-05-07T01:23:00;1.10;;;0.80;;
21114;SDS011;10715;48.546;9.896;2023-05-07T01:25:28;3.37;;;1.60;;
21114;SDS011;10715;48.546;9.896;2023-05-07T01:27:54;2.90;;;0.70;;
21114;SDS011;10715;48.546;9.896;2023-05-07T01:30:20;1.27;;;0.90;;
21114;SDS011;10715;48.546;9.896;2023-05-07T01:32:48;2.97;;;0.90;;
21114;SDS011;10715;48.546;9.896;2023-05-07T01:35:22;0.90;;;0.70;;
21114;SDS011;10715;48.546;9.896;2023-05-07T01:37:51;1.80;;;0.77;;
21114;SDS011;10715;48.546;9.896;2023-05-07T01:40:19;1.13;;;0.87;;
21114;SDS011;10715;48.546;9.896;2023-05-07T01:42:44;1.80;;;0.87;;
21114;SDS011;10715;48.546;9.896;2023-05-07T01:45:11;1.20;;;1.00;;
21114;SDS011;10715;48.546;9.896;2023-05-07T01:47:37;1.57;;;0.93;;
21114;SDS011;10715;48.546;9.896;2023-05-07T01:50:05;3.30;;;0.90;;
21114;SDS011;10715;48.546;9.896;2023-05-07T01:52:33;1.70;;;0.83;;
21114;SDS011;10715;48.546;9.896;2023-05-07T01:54:59;1.67;;;1.03;;
21114;SDS011;10715;48.546;9.896;2023-05-07T01:57:25;0.90;;;0.60;;
21114;SDS011;10715;48.546;9.896;2023-05-07T01:59:50;4.13;;;1.07;;
21114;SDS011;10715;48.546;9.896;2023-05-07T02:02:16;4.17;;;1.27;;
21114;SDS011;10715;48.546;9.896;2023-05-07T02:04:42;1.43;;;1.33;;
21114;SDS011;10715;48.546;9.896;2023-05-07T02:07:07;1.00;;;0.90;;
21114;SDS011;10715;48.546;9.896;2023-05-07T02:09:33;5.83;;;1.00;;
21114;SDS011;10715;48.546;9.896;2023-05-07T02:11:58;2.10;;;0.70;;
21114;SDS011;10715;48.546;9.896;2023-05-07T02:14:24;1.50;;;0.90;;
21114;SDS011;10715;48.546;9.896;2023-05-07T02:16:51;1.33;;;0.80;;
21114;SDS011;10715;48.546;9.896;2023-05-07T02:19:16;0.90;;;0.70;;
21114;SDS011;10715;48.546;9.896;2023-05-07T02:21:43;1.93;;;0.63;;
21114;SDS011;10715;48.546;9.896;2023-05-07T02:24:08;0.93;;;0.60;;
21114;SDS011;10715;48.546;9.896;2023-05-07T02:26:34;3.10;;;1.27;;
21114;SDS011;10715;48.546;9.896;2023-05-07T02:29:00;1.00;;;0.60;;
21114;SDS011;10715;48.546;9.896;2023-05-07T02:31:26;1.10;;;0.77;;
21114;SDS011;10715;48.546;9.896;2023-05-07T02:33:51;1.20;;;0.60;;
21114;SDS011;10715;48.546;9.896;2023-05-07T02:36:17;3.03;;;0.90;;
21114;SDS011;10715;48.546;9.896;2023-05-07T02:38:43;1.40;;;0.73;;
21114;SDS011;10715;48.546;9.896;2023-05-07T02:41:08;4.63;;;1.83;;
21114;SDS011;10715;48.546;9.896;2023-05-07T02:43:34;2.60;;;0.90;;
21114;SDS011;10715;48.546;9.896;2023-05-07T02:46:03;1.20;;;0.87;;
21114;SDS011;10715;48.546;9.896;2023-05-07T02:48:30;1.27;;;0.90;;
21114;SDS011;10715;48.546;9.896;2023-05-07T02:50:57;1.40;;;0.93;;
21114;SDS011;10715;48.546;9.896;2023-05-07T02:53:23;3.33;;;0.90;;
21114;SDS011;10715;48.546;9.896;2023-05-07T02:55:51;1.20;;;1.03;;
21114;SDS011;10715;48.546;9.896;2023-05-07T02:58:18;1.20;;;0.80;;
21114;SDS011;10715;48.546;9.896;2023-05-07T03:00:44;4.50;;;1.43;;
21114;SDS011;10715;48.546;9.896;2023-05-07T03:03:09;1.07;;;0.90;;
21114;SDS011;10715;48.546;9.896;2023-05-07T03:05:35;1.63;;;0.90;;
21114;SDS011;10715;48.546;9.896;2023-05-07T03:08:01;1.40;;;1.00;;
21114;SDS011;10715;48.546;9.896;2023-05-07T03:10:28;2.43;;;1.20;;
21114;SDS011;10715;48.546;9.896;2023-05-07T03:12:54;2.27;;;1.20;;
21114;SDS011;10715;48.546;9.896;2023-05-07T03:15:20;2.10;;;1.40;;
21114;SDS011;10715;48.546;9.896;2023-05-07T03:17:46;1.93;;;1.30;;
21114;SDS011;10715;48.546;9.896;2023-05-07T03:20:15;1.67;;;0.70;;
21114;SDS011;10715;48.546;9.896;2023-05-07T03:22:41;1.30;;;1.10;;
21114;SDS011;10715;48.546;9.896;2023-05-07T03:25:07;3.77;;;1.00;;
21114;SDS011;10715;48.546;9.896;2023-05-07T03:27:33;2.70;;;1.40;;
21114;SDS011;10715;48.546;9.896;2023-05-07T03:29:59;1.57;;;0.70;;
21114;SDS011;10715;48.546;9.896;2023-05-07T03:32:25;1.73;;;1.13;;
21114;SDS011;10715;48.546;9.896;2023-05-07T03:34:51;2.67;;;0.90;;
21114;SDS011;10715;48.546;9.896;2023-05-07T03:37:16;1.60;;;1.37;;
21114;SDS011;10715;48.546;9.896;2023-05-07T03:39:43;2.50;;;1.20;;
21114;SDS011;10715;48.546;9.896;2023-05-07T03:42:08;2.87;;;1.10;;
21114;SDS011;10715;48.546;9.896;2023-05-07T03:44:34;3.20;;;0.83;;
21114;SDS011;10715;48.546;9.896;2023-05-07T03:47:01;1.63;;;1.10;;
21114;SDS011;10715;48.546;9.896;2023-05-07T03:49:27;1.30;;;1.20;;
21114;SDS011;10715;48.546;9.896;2023-05-07T03:51:53;1.17;;;1.00;;
21114;SDS011;10715;48.546;9.896;2023-05-07T03:54:18;0.93;;;0.80;;
21114;SDS011;10715;48.546;9.896;2023-05-07T03:56:44;2.00;;;1.80;;
21114;SDS011;10715;48.546;9.896;2023-05-07T03:59:10;1.90;;;1.40;;
21114;SDS011;10715;48.546;9.896;2023-05-07T04:01:36;3.63;;;0.97;;
21114;SDS011;10715;48.546;9.896;2023-05-07T04:04:02;1.60;;;1.30;;
21114;SDS011;10715;48.546;9.896;2023-05-07T04:06:29;4.43;;;1.27;;
21114;SDS011;10715;48.546;9.896;2023-05-07T04:08:55;1.23;;;1.13;;
21114;SDS011;10715;48.546;9.896;2023-05-07T04:11:21;1.10;;;0.97;;
21114;SDS011;10715;48.546;9.896;2023-05-07T04:13:47;1.57;;;1.47;;
21114;SDS011;10715;48.546;9.896;2023-05-07T04:18:40;2.40;;;0.93;;
21114;SDS011;10715;48.546;9.896;2023-05-07T04:21:13;3.10;;;1.80;;
21114;SDS011;10715;48.546;9.896;2023-05-07T04:23:43;2.60;;;1.60;;
21114;SDS011;10715;48.546;9.896;2023-05-07T04:26:08;1.30;;;1.10;;
21114;SDS011;10715;48.546;9.896;2023-05-07T04:28:35;3.00;;;1.27;;
21114;SDS011;10715;48.546;9.896;2023-05-07T04:31:01;1.70;;;1.33;;
21114;SDS011;10715;48.546;9.896;2023-05-07T04:33:27;2.47;;;1.40;;
21114;SDS011;10715;48.546;9.896;2023-05-07T04:35:52;1.10;;;0.90;;
21114;SDS011;10715;48.546;9.896;2023-05-07T04:38:18;3.03;;;1.70;;
21114;SDS011;10715;48.546;9.896;2023-05-07T04:40:44;1.90;;;1.53;;
21114;SDS011;10715;48.546;9.896;2023-05-07T04:43:10;2.03;;;1.10;;
21114;SDS011;10715;48.546;9.896;2023-05-07T04:45:36;1.70;;;1.23;;
21114;SDS011;10715;48.546;9.896;2023-05-07T04:48:02;1.77;;;1.67;;
21114;SDS011;10715;48.546;9.896;2023-05-07T04:50:28;1.33;;;1.23;;
21114;SDS011;10715;48.546;9.896;2023-05-07T04:52:53;1.30;;;1.13;;
21114;SDS011;10715;48.546;9.896;2023-05-07T04:55:19;2.47;;;1.10;;
21114;SDS011;10715;48.546;9.896;2023-05-07T04:57:45;1.20;;;1.00;;
21114;SDS011;10715;48.546;9.896;2023-05-07T05:00:11;2.17;;;1.33;;
21114;SDS011;10715;48.546;9.896;2023-05-07T05:02:39;1.50;;;1.40;;
21114;SDS011;10715;48.546;9.896;2023-05-07T05:05:06;1.43;;;1.20;;
21114;SDS011;10715;48.546;9.896;2023-05-07T05:07:32;1.87;;;1.47;;
21114;SDS011;10715;48.546;9.896;2023-05-07T05:09:58;6.90;;;2.00;;
21114;SDS011;10715;48.546;9.896;2023-05-07T05:12:24;1.67;;;1.50;;
21114;SDS011;10715;48.546;9.896;2023-05-07T05:14:50;1.97;;;1.60;;
21114;SDS011;10715;48.546;9.896;2023-05-07T05:17:15;2.80;;;1.93;;
21114;SDS011;10715;48.546;9.896;2023-05-07T05:19:41;2.40;;;2.20;;
21114;SDS011;10715;48.546;9.896;2023-05-07T05:22:07;1.70;;;1.50;;
21114;SDS011;10715;48.546;9.896;2023-05-07T05:24:32;1.20;;;1.10;;
21114;SDS011;10715;48.546;9.896;2023-05-07T05:26:58;2.43;;;1.90;;
21114;SDS011;10715;48.546;9.896;2023-05-07T05:29:26;3.37;;;1.57;;
21114;SDS011;10715;48.546;9.896;2023-05-07T05:31:51;2.90;;;1.70;;
21114;SDS011;10715;48.546;9.896;2023-05-07T05:34:17;2.60;;;2.13;;
21114;SDS011;10715;48.546;9.896;2023-05-07T05:36:44;2.57;;;2.10;;
21114;SDS011;10715;48.546;9.896;2023-05-07T05:39:11;2.17;;;1.80;;
21114;SDS011;10715;48.546;9.896;2023-05-07T05:41:36;3.07;;;2.87;;
21114;SDS011;10715;48.546;9.896;2023-05-07T05:44:02;2.60;;;2.30;;
21114;SDS011;10715;48.546;9.896;2023-05-07T05:46:28;2.33;;;1.97;;
21114;SDS011;10715;48.546;9.896;2023-05-07T05:48:53;2.30;;;2.10;;
21114;SDS011;10715;48.546;9.896;2023-05-07T05:51:20;2.53;;;2.17;;
21114;SDS011;10715;48.546;9.896;2023-05-07T05:53:46;3.97;;;2.90;;
21114;SDS011;10715;48.546;9.896;2023-05-07T05:56:12;3.10;;;2.80;;
21114;SDS011;10715;48.546;9.896;2023-05-07T05:58:38;3.87;;;3.57;;
21114;SDS011;10715;48.546;9.896;2023-05-07T06:01:03;2.47;;;2.07;;
21114;SDS011;10715;48.546;9.896;2023-05-07T06:03:30;3.17;;;2.87;;
21114;SDS011;10715;48.546;9.896;2023-05-07T06:05:57;2.50;;;2.40;;
21114;SDS011;10715;48.546;9.896;2023-05-07T06:08:23;3.50;;;3.10;;
21114;SDS011;10715;48.546;9.896;2023-05-07T06:10:48;2.50;;;2.30;;
21114;SDS011;10715;48.546;9.896;2023-05-07T06:13:14;4.60;;;2.90;;
21114;SDS011;10715;48.546;9.896;2023-05-07T06:15:40;2.80;;;2.60;;
21114;SDS011;10715;48.546;9.896;2023-05-07T06:18:06;3.40;;;3.07;;
21114;SDS011;10715;48.546;9.896;2023-05-07T06:20:32;2.20;;;2.10;;
21114;SDS011;10715;48.546;9.896;2023-05-07T06:22:57;3.00;;;2.07;;
21114;SDS011;10715;48.546;9.896;2023-05-07T06:25:23;2.40;;;2.20;;
21114;SDS011;10715;48.546;9.896;2023-05-07T06:27:49;2.20;;;2.10;;
21114;SDS011;10715;48.546;9.896;2023-05-07T06:30:14;3.03;;;2.73;;
21114;SDS011;10715;48.546;9.896;2023-05-07T06:32:40;3.13;;;2.90;;
21114;SDS011;10715;48.546;9.896;2023-05-07T06:35:06;3.00;;;2.53;;
21114;SDS011;10715;48.546;9.896;2023-05-07T06:37:32;3.37;;;2.83;;
21114;SDS011;10715;48.546;9.896;2023-05-07T06:39:58;4.77;;;3.07;;
21114;SDS011;10715;48.546;9.896;2023-05-07T06:42:23;7.03;;;3.63;;
21114;SDS011;10715;48.546;9.896;2023-05-07T06:44:49;5.07;;;4.40;;
21114;SDS011;10715;48.546;9.896;2023-05-07T06:47:15;4.40;;;4.10;;
21114;SDS011;10715;48.546;9.896;2023-05-07T06:49:41;5.23;;;4.20;;
21114;SDS011;10715;48.546;9.896;2023-05-07T06:52:07;5.83;;;4.93;;
21114;SDS011;10715;48.546;9.896;2023-05-07T06:54:33;4.23;;;3.93;;
21114;SDS011;10715;48.546;9.896;2023-05-07T06:56:58;3.70;;;3.47;;
21114;SDS011;10715;48.546;9.896;2023-05-07T06:59:24;6.47;;;3.50;;
21114;SDS011;10715;48.546;9.896;2023-05-07T07:01:50;4.60;;;4.07;;
21114;SDS011;10715;48.546;9.896;2023-05-07T07:04:15;5.80;;;5.27;;
21114;SDS011;10715;48.546;9.896;2023-05-07T07:06:41;3.80;;;3.50;;
21114;SDS011;10715;48.546;9.896;2023-05-07T07:09:07;5.40;;;5.00;;
21114;SDS011;10715;48.546;9.896;2023-05-07T07:11:32;7.00;;;6.30;;
21114;SDS011;10715;48.546;9.896;2023-05-07T07:13:58;8.87;;;5.63;;
21114;SDS011;10715;48.546;9.896;2023-05-07T07:16:24;4.60;;;4.20;;
21114;SDS011;10715;48.546;9.896;2023-05-07T07:18:50;5.13;;;4.60;;
21114;SDS011;10715;48.546;9.896;2023-05-07T07:21:16;4.83;;;4.43;;
21114;SDS011;10715;48.546;9.896;2023-05-07T07:23:41;4.50;;;4.20;;
21114;SDS011;10715;48.546;9.896;2023-05-07T07:26:07;4.93;;;3.93;;
21114;SDS011;10715;48.546;9.896;2023-05-07T07:28:33;5.03;;;4.70;;
21114;SDS011;10715;48.546;9.896;2023-05-07T07:30:59;5.87;;;4.93;;
21114;SDS011;10715;48.546;9.896;2023-05-07T07:33:25;3.93;;;3.63;;
21114;SDS011;10715;48.546;9.896;2023-05-07T07:35:50;5.50;;;4.17;;
21114;SDS011;10715;48.546;9.896;2023-05-07T07:38:16;4.30;;;3.90;;
21114;SDS011;10715;48.546;9.896;2023-05-07T07:40:42;3.37;;;2.97;;
21114;SDS011;10715;48.546;9.896;2023-05-07T07:43:08;3.30;;;3.10;;
21114;SDS011;10715;48.546;9.896;2023-05-07T07:45:34;3.83;;;3.40;;
21114;SDS011;10715;48.546;9.896;2023-05-07T07:48:00;3.40;;;2.73;;
21114;SDS011;10715;48.546;9.896;2023-05-07T07:50:26;2.93;;;2.00;;
21114;SDS011;10715;48.546;9.896;2023-05-07T07:52:52;2.37;;;2.17;;
21114;SDS011;10715;48.546;9.896;2023-05-07T07:55:19;3.17;;;2.13;;
21114;SDS011;10715;48.546;9.896;2023-05-07T07:57:47;4.93;;;2.80;;
21114;SDS011;10715;48.546;9.896;2023-05-07T08:00:14;2.13;;;2.03;;
21114;SDS011;10715;48.546;9.896;2023-05-07T08:02:40;2.60;;;2.03;;
21114;SDS011;10715;48.546;9.896;2023-05-07T08:05:06;2.27;;;2.03;;
21114;SDS011;10715;48.546;9.896;2023-05-07T08:07:32;5.20;;;2.40;;
21114;SDS011;10715;48.546;9.896;2023-05-07T08:09:58;2.37;;;2.27;;
21114;SDS011;10715;48.546;9.896;2023-05-07T08:12:23;3.43;;;2.67;;
21114;SDS011;10715;48.546;9.896;2023-05-07T08:14:49;3.20;;;2.20;;
21114;SDS011;10715;48.546;9.896;2023-05-07T08:17:15;3.00;;;2.10;;
21114;SDS011;10715;48.546;9.896;2023-05-07T08:19:41;3.20;;;2.73;;
21114;SDS011;10715;48.546;9.896;2023-05-07T08:22:08;2.80;;;2.60;;
21114;SDS011;10715;48.546;9.896;2023-05-07T08:24:35;5.33;;;2.97;;
21114;SDS011;10715;48.546;9.896;2023-05-07T08:27:01;2.37;;;2.17;;
21114;SDS011;10715;48.546;9.896;2023-05-07T08:29:27;2.10;;;2.00;;
21114;SDS011;10715;48.546;9.896;2023-05-07T08:31:52;2.10;;;2.00;;
21114;SDS011;10715;48.546;9.896;2023-05-07T08:34:18;3.53;;;2.50;;
21114;SDS011;10715;48.546;9.896;2023-05-07T08:36:45;2.80;;;2.57;;
21114;SDS011;10715;48.546;9.896;2023-05-07T08:39:13;5.97;;;5.53;;
21114;SDS011;10715;48.546;9.896;2023-05-07T08:41:40;2.70;;;2.53;;
21114;SDS011;10715;48.546;9.896;2023-05-07T08:44:08;4.73;;;3.20;;
21114;SDS011;10715;48.546;9.896;2023-05-07T08:46:37;3.00;;;2.80;;
21114;SDS011;10715;48.546;9.896;2023-05-07T08:49:04;3.57;;;3.27;;
21114;SDS011;10715;48.546;9.896;2023-05-07T08:51:30;3.00;;;2.80;;
21114;SDS011;10715;48.546;9.896;2023-05-07T08:53:56;3.13;;;2.93;;
21114;SDS011;10715;48.546;9.896;2023-05-07T08:56:24;3.30;;;3.00;;
21114;SDS011;10715;48.546;9.896;2023-05-07T08:58:50;2.23;;;2.13;;
21114;SDS011;10715;48.546;9.896;2023-05-07T09:01:16;4.50;;;4.23;;
21114;SDS011;10715;48.546;9.896;2023-05-07T09:03:46;2.37;;;2.17;;
21114;SDS011;10715;48.546;9.896;2023-05-07T09:06:12;5.60;;;3.20;;
21114;SDS011;10715;48.546;9.896;2023-05-07T09:08:38;3.10;;;2.80;;
21114;SDS011;10715;48.546;9.896;2023-05-07T09:11:03;2.80;;;2.60;;
21114;SDS011;10715;48.546;9.896;2023-05-07T09:13:29;3.33;;;3.13;;
21114;SDS011;10715;48.546;9.896;2023-05-07T09:15:55;3.43;;;3.23;;
21114;SDS011;10715;48.546;9.896;2023-05-07T09:18:23;2.90;;;2.70;;
21114;SDS011;10715;48.546;9.896;2023-05-07T09:20:50;3.33;;;3.13;;
21114;SDS011;10715;48.546;9.896;2023-05-07T09:23:16;4.90;;;3.83;;
21114;SDS011;10715;48.546;9.896;2023-05-07T09:25:42;3.63;;;3.33;;
21114;SDS011;10715;48.546;9.896;2023-05-07T09:28:07;3.23;;;2.93;;
21114;SDS011;10715;48.546;9.896;2023-05-07T09:30:35;3.00;;;2.77;;
21114;SDS011;10715;48.546;9.896;2023-05-07T09:33:01;3.20;;;2.80;;
21114;SDS011;10715;48.546;9.896;2023-05-07T09:35:29;4.23;;;3.70;;
21114;SDS011;10715;48.546;9.896;2023-05-07T09:37:56;2.97;;;2.67;;
21114;SDS011;10715;48.546;9.896;2023-05-07T09:40:27;4.30;;;3.93;;
21114;SDS011;10715;48.546;9.896;2023-05-07T09:42:54;12.10;;;2.90;;
21114;SDS011;10715;48.546;9.896;2023-05-07T09:45:26;2.80;;;2.60;;
21114;SDS011;10715;48.546;9.896;2023-05-07T09:47:54;9.60;;;5.30;;
21114;SDS011;10715;48.546;9.896;2023-05-07T09:50:27;2.27;;;2.13;;
21114;SDS011;10715;48.546;9.896;2023-05-07T09:53:10;5.37;;;3.47;;
21114;SDS011;10715;48.546;9.896;2023-05-07T09:55:37;4.90;;;1.90;;
21114;SDS011;10715;48.546;9.896;2023-05-07T09:58:04;4.50;;;2.70;;
21114;SDS011;10715;48.546;9.896;2023-05-07T10:00:31;4.00;;;3.80;;
21114;SDS011;10715;48.546;9.896;2023-05-07T10:02:57;2.80;;;2.60;;
21114;SDS011;10715;48.546;9.896;2023-05-07T10:05:24;6.60;;;2.83;;
21114;SDS011;10715;48.546;9.896;2023-05-07T10:07:51;7.13;;;3.67;;
21114;SDS011;10715;48.546;9.896;2023-05-07T10:10:19;2.90;;;2.70;;
21114;SDS011;10715;48.546;9.896;2023-05-07T10:12:45;4.77;;;3.63;;
21114;SDS011;10715;48.546;9.896;2023-05-07T10:15:12;5.47;;;3.13;;
21114;SDS011;10715;48.546;9.896;2023-05-07T10:17:39;3.07;;;2.87;;
21114;SDS011;10715;48.546;9.896;2023-05-07T10:20:06;2.50;;;2.20;;
21114;SDS011;10715;48.546;9.896;2023-05-07T10:22:37;2.80;;;2.13;;
21114;SDS011;10715;48.546;9.896;2023-05-07T10:25:16;2.43;;;2.23;;
21114;SDS011;10715;48.546;9.896;2023-05-07T10:27:46;3.70;;;2.43;;
21114;SDS011;10715;48.546;9.896;2023-05-07T10:30:30;2.50;;;2.30;;
21114;SDS011;10715;48.546;9.896;2023-05-07T10:33:22;2.30;;;2.10;;
21114;SDS011;10715;48.546;9.896;2023-05-07T10:35:51;1.67;;;1.57;;
21114;SDS011;10715;48.546;9.896;2023-05-07T10:38:24;1.60;;;1.50;;
21114;SDS011;10715;48.546;9.896;2023-05-07T10:40:50;6.57;;;1.67;;
21114;SDS011;10715;48.546;9.896;2023-05-07T10:43:16;2.07;;;1.40;;
21114;SDS011;10715;48.546;9.896;2023-05-07T10:45:42;1.83;;;1.73;;
21114;SDS011;10715;48.546;9.896;2023-05-07T10:48:14;3.30;;;1.93;;
21114;SDS011;10715;48.546;9.896;2023-05-07T10:50:42;1.80;;;1.20;;
21114;SDS011;10715;48.546;9.896;2023-05-07T10:56:29;1.50;;;1.40;;
21114;SDS011;10715;48.546;9.896;2023-05-07T10:58:38;5.10;;;1.40;;
21114;SDS011;10715;48.546;9.896;2023-05-07T11:01:04;1.83;;;1.00;;
21114;SDS011;10715;48.546;9.896;2023-05-07T11:03:32;1.20;;;1.00;;
21114;SDS011;10715;48.546;9.896;2023-05-07T11:06:14;1.00;;;0.70;;
21114;SDS011;10715;48.546;9.896;2023-05-07T11:08:56;2.33;;;1.27;;
21114;SDS011;10715;48.546;9.896;2023-05-07T11:17:06;2.77;;;2.57;;
21114;SDS011;10715;48.546;9.896;2023-05-07T11:19:48;2.03;;;1.83;;
21114;SDS011;10715;48.546;9.896;2023-05-07T11:25:00;1.50;;;1.40;;
21114;SDS011;10715;48.546;9.896;2023-05-07T11:27:26;2.23;;;1.40;;
21114;SDS011;10715;48.546;9.896;2023-05-07T11:29:52;1.43;;;1.33;;
21114;SDS011;10715;48.546;9.896;2023-05-07T11:32:28;1.50;;;1.40;;
21114;SDS011;10715;48.546;9.896;2023-05-07T11:34:56;6.10;;;2.13;;
21114;SDS011;10715;48.546;9.896;2023-05-07T11:37:23;1.70;;;1.27;;
21114;SDS011;10715;48.546;9.896;2023-05-07T11:39:49;2.00;;;1.70;;
21114;SDS011;10715;48.546;9.896;2023-05-07T11:42:33;6.23;;;2.60;;
21114;SDS011;10715;48.546;9.896;2023-05-07T11:45:00;2.30;;;2.10;;
21114;SDS011;10715;48.546;9.896;2023-05-07T11:47:26;2.30;;;1.87;;
21114;SDS011;10715;48.546;9.896;2023-05-07T11:50:02;3.43;;;2.90;;
21114;SDS011;10715;48.546;9.896;2023-05-07T11:52:32;2.70;;;1.73;;
21114;SDS011;10715;48.546;9.896;2023-05-07T11:54:59;3.23;;;2.83;;
21114;SDS011;10715;48.546;9.896;2023-05-07T11:57:27;3.33;;;3.13;;
21114;SDS011;10715;48.546;9.896;2023-05-07T11:59:54;2.77;;;2.57;;
21114;SDS011;10715;48.546;9.896;2023-05-07T12:02:20;4.30;;;3.80;;
21114;SDS011;10715;48.546;9.896;2023-05-07T12:04:45;4.37;;;3.97;;
21114;SDS011;10715;48.546;9.896;2023-05-07T12:07:12;3.63;;;3.40;;
21114;SDS011;10715;48.546;9.896;2023-05-07T12:09:39;2.90;;;2.70;;
21114;SDS011;10715;48.546;9.896;2023-05-07T12:12:06;3.90;;;3.60;;
21114;SDS011;10715;48.546;9.896;2023-05-07T12:14:31;5.27;;;2.60;;
21114;SDS011;10715;48.546;9.896;2023-05-07T12:16:58;8.07;;;2.67;;
21114;SDS011;10715;48.546;9.896;2023-05-07T12:19:28;3.00;;;2.70;;
21114;SDS011;10715;48.546;9.896;2023-05-07T12:21:55;4.13;;;3.13;;
21114;SDS011;10715;48.546;9.896;2023-05-07T12:24:22;3.40;;;3.10;;
21114;SDS011;10715;48.546;9.896;2023-05-07T12:26:50;4.40;;;3.40;;
21114;SDS011;10715;48.546;9.896;2023-05-07T12:29:16;4.37;;;4.07;;
21114;SDS011;10715;48.546;9.896;2023-05-07T12:31:42;5.23;;;2.10;;
21114;SDS011;10715;48.546;9.896;2023-05-07T12:34:10;3.00;;;2.80;;
21114;SDS011;10715;48.546;9.896;2023-05-07T12:36:39;2.53;;;2.33;;
21114;SDS011;10715;48.546;9.896;2023-05-07T12:39:06;7.33;;;2.00;;
21114;SDS011;10715;48.546;9.896;2023-05-07T12:41:55;2.47;;;2.00;;
21114;SDS011;10715;48.546;9.896;2023-05-07T12:44:29;2.70;;;2.50;;
21114;SDS011;10715;48.546;9.896;2023-05-07T12:47:01;4.67;;;2.90;;
21114;SDS011;10715;48.546;9.896;2023-05-07T12:49:27;2.27;;;2.10;;
21114;SDS011;10715;48.546;9.896;2023-05-07T12:51:53;2.80;;;2.60;;
21114;SDS011;10715;48.546;9.896;2023-05-07T12:54:33;3.10;;;2.90;;
21114;SDS011;10715;48.546;9.896;2023-05-07T12:57:02;3.27;;;3.07;;
21114;SDS011;10715;48.546;9.896;2023-05-07T12:59:41;2.43;;;2.23;;
21114;SDS011;10715;48.546;9.896;2023-05-07T13:02:07;2.70;;;2.50;;
21114;SDS011;10715;48.546;9.896;2023-05-07T13:04:33;3.07;;;2.97;;
21114;SDS011;10715;48.546;9.896;2023-05-07T13:07:01;2.60;;;2.40;;
21114;SDS011;10715;48.546;9.896;2023-05-07T13:09:27;1.80;;;1.70;;
21114;SDS011;10715;48.546;9.896;2023-05-07T13:11:58;1.93;;;1.83;;
21114;SDS011;10715;48.546;9.896;2023-05-07T13:14:28;1.83;;;1.73;;
21114;SDS011;10715;48.546;9.896;2023-05-07T13:16:54;1.90;;;1.80;;
21114;SDS011;10715;48.546;9.896;2023-05-07T13:19:19;1.90;;;1.80;;
21114;SDS011;10715;48.546;9.896;2023-05-07T13:21:45;3.53;;;2.03;;
21114;SDS011;10715;48.546;9.896;2023-05-07T13:24:11;2.53;;;1.57;;
21114;SDS011;10715;48.546;9.896;2023-05-07T13:26:37;2.50;;;2.13;;
21114;SDS011;10715;48.546;9.896;2023-05-07T13:29:03;5.30;;;2.10;;
21114;SDS011;10715;48.546;9.896;2023-05-07T13:31:29;1.53;;;1.23;;
21114;SDS011;10715;48.546;9.896;2023-05-07T13:33:55;4.27;;;1.77;;
21114;SDS011;10715;48.546;9.896;2023-05-07T13:36:21;1.30;;;1.20;;
21114;SDS011;10715;48.546;9.896;2023-05-07T13:38:47;1.93;;;1.40;;
21114;SDS011;10715;48.546;9.896;2023-05-07T13:41:13;1.57;;;1.10;;
21114;SDS011;10715;48.546;9.896;2023-05-07T13:43:41;1.53;;;1.13;;
21114;SDS011;10715;48.546;9.896;2023-05-07T13:46:07;1.60;;;1.20;;
21114;SDS011;10715;48.546;9.896;2023-05-07T13:48:35;1.90;;;1.80;;
21114;SDS011;10715;48.546;9.896;2023-05-07T13:51:01;1.67;;;1.57;;
21114;SDS011;10715;48.546;9.896;2023-05-07T13:53:27;1.83;;;1.50;;
21114;SDS011;10715;48.546;9.896;2023-05-07T13:55:53;2.80;;;1.57;;
21114;SDS011;10715;48.546;9.896;2023-05-07T13:58:19;3.83;;;1.50;;
21114;SDS011;10715;48.546;9.896;2023-05-07T14:00:45;1.30;;;1.20;;
21114;SDS011;10715;48.546;9.896;2023-05-07T14:03:10;1.23;;;1.10;;
21114;SDS011;10715;48.546;9.896;2023-05-07T14:05:36;1.57;;;1.47;;
21114;SDS011;10715;48.546;9.896;2023-05-07T14:08:02;1.60;;;1.50;;
21114;SDS011;10715;48.546;9.896;2023-05-07T14:10:30;4.20;;;1.93;;
21114;SDS011;10715;48.546;9.896;2023-05-07T14:12:56;1.70;;;1.60;;
21114;SDS011;10715;48.546;9.896;2023-05-07T14:15:22;2.33;;;1.97;;
21114;SDS011;10715;48.546;9.896;2023-05-07T14:17:48;1.87;;;1.77;;
21114;SDS011;10715;48.546;9.896;2023-05-07T14:20:13;3.27;;;2.97;;
21114;SDS011;10715;48.546;9.896;2023-05-07T14:22:39;2.70;;;2.50;;
21114;SDS011;10715;48.546;9.896;2023-05-07T14:25:05;2.93;;;2.20;;
21114;SDS011;10715;48.546;9.896;2023-05-07T14:27:31;2.07;;;1.97;;
21114;SDS011;10715;48.546;9.896;2023-05-07T14:29:57;1.73;;;1.63;;
21114;SDS011;10715;48.546;9.896;2023-05-07T14:32:23;2.33;;;2.13;;
21114;SDS011;10715;48.546;9.896;2023-05-07T14:34:49;1.47;;;1.37;;
21114;SDS011;10715;48.546;9.896;2023-05-07T14:37:15;2.90;;;2.07;;
21114;SDS011;10715;48.546;9.896;2023-05-07T14:39:41;3.93;;;1.63;;
21114;SDS011;10715;48.546;9.896;2023-05-07T14:42:06;2.90;;;2.37;;
21114;SDS011;10715;48.546;9.896;2023-05-07T14:44:37;2.30;;;2.20;;
21114;SDS011;10715;48.546;9.896;2023-05-07T14:47:06;4.07;;;2.50;;
21114;SDS011;10715;48.546;9.896;2023-05-07T14:49:33;4.03;;;2.73;;
21114;SDS011;10715;48.546;9.896;2023-05-07T14:51:59;3.33;;;3.13;;
21114;SDS011;10715;48.546;9.896;2023-05-07T14:54:27;5.33;;;2.77;;
21114;SDS011;10715;48.546;9.896;2023-05-07T14:56:53;3.40;;;2.70;;
21114;SDS011;10715;48.546;9.896;2023-05-07T14:59:19;2.10;;;2.00;;